McAllen, TX

11:53 PM CDT on April 17, 2015 (GMT -0500)
McAllen Miller International | | Change Station
CLOSE
Current Station
Airport
Location: McAllen,
Elevation: 105 ft
Nearby Weather Stations
Active Advisory: Tornado Watch

Elev 105 ft 26.18 °N, 98.24 °W | Updated 1 hour ago

Overcast
Overcast
79 °F
Feels Like 79 °F
N
7
Wind Variable Wind from SE

Today
High -- | Low -- °F
--% Chance of Precip.
Yesterday
High -- | Low -- °F
Precip. -- in
7:07 AM 7:57 PM
Waning Crescent, 0% visible
Pressure 29.85 in
Visibility 8.0 miles
Clouds Mostly Cloudy 1300 ft
Overcast 1700 ft
Dew Point 74 °F
Humidity 84%
Rainfall 0.00 in
Snow Depth Not available.
UV 0 out of 12
Pollen 8.60 out of 12
Air Quality Not available.
Flu Activity Local Activity
METAR KMFE 180353Z 13006KT 8SM BKN013 OVC017 26/23 A2985 RMK AO2 SLP108 T02610233

More Conditions Fewer Conditions

Pressure 29.85 in
Visibility 8.0 miles
Clouds Mostly Cloudy 1300 ft
Overcast 1700 ft
Dew Point 74 °F
Humidity 84%
Rainfall 0.00 in
Snow Depth Not available.
UV 0 out of 12
Pollen 8.60 out of 12
Air Quality Not available.
Flu Activity Local Activity
METAR KMFE 180353Z 13006KT 8SM BKN013 OVC017 26/23 A2985 RMK AO2 SLP108 T02610233

More Conditions Fewer Conditions

10-Day Weather Forecast

Almanac

Astronomy

Apr. 17, 2015 Rise Set
Actual Time
Civil Twilight
Nautical Twilight
Astronomical Twilight
Moon
Length of Visible Light
Length of Day
Tomorrow will be .
, % of the Moon is Illuminated

Today's Extremes

State Highs State Lows

Community

WunderPhotos

Upload Photos

1,814,342 photos uploaded!

WunderBlogs® & News

Nearby

Air Quality

  Air Quality AQ Index Pollutant
Not available.

Snow Depth

Station Depth Elevation

Earthquake Activity

City Distance Mag. Time & Date
Minimum magnitude displayed is 2.5.

Coastal Water Temperatures

Place Temperature

Stations

Nearby Weather Stations

Station Location Temp. Windchill Dew Point Humidity Wind Precip. Elev Updated Type
                   
Tornado Watch
Statement as of 11:47 PM CDT on April 17, 2015


The National Weather Service has cancelled Tornado Watch 70 for
the following areas

In Texas this cancels 5 counties

In deep south Texas

Brooks Hidalgo Jim Hogg
Starr Zapata

This includes the cities of... Edinburg... Falfurrias...
Hebbronville... McAllen... mission... Pharr... Rio Grande City...
Roma... Weslaco and Zapata.


Jgg